sensor_id;sensor_type;location;lat;lon;timestamp;pressure;altitude;pressure_sealevel;temperature;humidity
61710;BME280;47633;51.494;5.386;2022-09-20T00:00:13;102197.38;;;19.79;50.82
61710;BME280;47633;51.494;5.386;2022-09-20T00:02:38;102195.50;;;19.81;51.03
61710;BME280;47633;51.494;5.386;2022-09-20T00:05:04;102178.59;;;19.69;50.87
61710;BME280;47633;51.494;5.386;2022-09-20T00:07:30;102192.47;;;19.72;51.09
61710;BME280;47633;51.494;5.386;2022-09-20T00:09:56;102201.09;;;19.76;50.97
61710;BME280;47633;51.494;5.386;2022-09-20T00:12:22;102202.75;;;19.77;51.11
61710;BME280;47633;51.494;5.386;2022-09-20T00:14:47;102203.63;;;19.78;51.07
61710;BME280;47633;51.494;5.386;2022-09-20T00:17:12;102192.56;;;19.71;51.16
61710;BME280;47633;51.494;5.386;2022-09-20T00:19:38;102190.03;;;19.69;50.67
61710;BME280;47633;51.494;5.386;2022-09-20T00:22:03;102183.06;;;19.68;51.08
61710;BME280;47633;51.494;5.386;2022-09-20T00:24:28;102183.06;;;19.68;50.70
61710;BME280;47633;51.494;5.386;2022-09-20T00:26:53;102194.91;;;19.75;50.97
61710;BME280;47633;51.494;5.386;2022-09-20T00:29:19;102177.75;;;19.68;50.83
61710;BME280;47633;51.494;5.386;2022-09-20T00:31:44;102185.69;;;19.68;51.02
61710;BME280;47633;51.494;5.386;2022-09-20T00:34:12;102187.41;;;19.69;51.07
61710;BME280;47633;51.494;5.386;2022-09-20T00:36:56;102188.22;;;19.70;50.60
61710;BME280;47633;51.494;5.386;2022-09-20T00:39:21;102185.06;;;19.65;51.08
61710;BME280;47633;51.494;5.386;2022-09-20T00:41:46;102194.47;;;19.69;50.98
61710;BME280;47633;51.494;5.386;2022-09-20T00:44:41;102206.56;;;19.73;50.83
61710;BME280;47633;51.494;5.386;2022-09-20T00:47:42;102203.13;;;19.71;50.72
61710;BME280;47633;51.494;5.386;2022-09-20T00:50:13;102201.47;;;19.70;50.82
61710;BME280;47633;51.494;5.386;2022-09-20T00:52:43;102197.00;;;19.70;50.94
61710;BME280;47633;51.494;5.386;2022-09-20T00:55:10;102185.91;;;19.65;50.67
61710;BME280;47633;51.494;5.386;2022-09-20T00:57:37;102189.47;;;19.64;50.88
61710;BME280;47633;51.494;5.386;2022-09-20T01:00:07;102188.84;;;19.61;50.96
61710;BME280;47633;51.494;5.386;2022-09-20T01:02:36;102194.03;;;19.62;50.74
61710;BME280;47633;51.494;5.386;2022-09-20T01:05:04;102194.13;;;19.61;50.89
61710;BME280;47633;51.494;5.386;2022-09-20T01:07:30;102191.50;;;19.61;50.74
61710;BME280;47633;51.494;5.386;2022-09-20T01:09:55;102177.94;;;19.52;50.74
61710;BME280;47633;51.494;5.386;2022-09-20T01:12:22;102187.44;;;19.55;50.64
61710;BME280;47633;51.494;5.386;2022-09-20T01:14:50;102183.22;;;19.52;50.92
61710;BME280;47633;51.494;5.386;2022-09-20T01:17:18;102197.63;;;19.61;50.61
61710;BME280;47633;51.494;5.386;2022-09-20T01:25:24;102186.91;;;19.50;50.75
61710;BME280;47633;51.494;5.386;2022-09-20T01:27:52;102177.50;;;19.46;50.70
61710;BME280;47633;51.494;5.386;2022-09-20T01:30:21;102194.63;;;19.53;50.63
61710;BME280;47633;51.494;5.386;2022-09-20T01:33:02;102188.50;;;19.52;50.74
61710;BME280;47633;51.494;5.386;2022-09-20T01:35:33;102190.41;;;19.50;51.01
61710;BME280;47633;51.494;5.386;2022-09-20T01:38:28;102191.34;;;19.49;50.98
61710;BME280;47633;51.494;5.386;2022-09-20T01:41:04;102188.06;;;19.46;50.98
61710;BME280;47633;51.494;5.386;2022-09-20T01:43:38;102187.97;;;19.47;51.19
61710;BME280;47633;51.494;5.386;2022-09-20T01:46:30;102186.38;;;19.45;50.96
61710;BME280;47633;51.494;5.386;2022-09-20T01:50:02;102198.44;;;19.49;50.74
61710;BME280;47633;51.494;5.386;2022-09-20T01:52:47;102198.53;;;19.47;50.82
61710;BME280;47633;51.494;5.386;2022-09-20T01:55:44;102199.28;;;19.49;50.84
61710;BME280;47633;51.494;5.386;2022-09-20T02:01:01;102194.00;;;19.49;50.88
61710;BME280;47633;51.494;5.386;2022-09-20T02:12:21;102184.66;;;19.44;50.78
61710;BME280;47633;51.494;5.386;2022-09-20T02:15:25;102179.66;;;19.39;50.88
61710;BME280;47633;51.494;5.386;2022-09-20T02:25:59;102197.88;;;19.44;50.94
61710;BME280;47633;51.494;5.386;2022-09-20T02:28:39;102193.66;;;19.41;50.97
61710;BME280;47633;51.494;5.386;2022-09-20T02:31:15;102174.03;;;19.31;50.74
61710;BME280;47633;51.494;5.386;2022-09-20T02:37:07;102188.47;;;19.39;50.83
61710;BME280;47633;51.494;5.386;2022-09-20T02:39:48;102184.84;;;19.40;51.04
61710;BME280;47633;51.494;5.386;2022-09-20T02:42:43;102191.13;;;19.39;50.87
61710;BME280;47633;51.494;5.386;2022-09-20T02:45:19;102191.41;;;19.35;50.80
61710;BME280;47633;51.494;5.386;2022-09-20T02:47:48;102185.59;;;19.30;51.08
61710;BME280;47633;51.494;5.386;2022-09-20T02:50:22;102192.25;;;19.35;51.04
61710;BME280;47633;51.494;5.386;2022-09-20T02:53:07;102197.44;;;19.37;51.05
61710;BME280;47633;51.494;5.386;2022-09-20T02:58:46;102194.78;;;19.37;50.92
61710;BME280;47633;51.494;5.386;2022-09-20T03:14:59;102173.22;;;19.30;51.16
61710;BME280;47633;51.494;5.386;2022-09-20T03:17:34;102173.41;;;19.27;51.04
61710;BME280;47633;51.494;5.386;2022-09-20T03:20:18;102186.13;;;19.35;51.06
61710;BME280;47633;51.494;5.386;2022-09-20T03:23:12;102189.06;;;19.30;51.18
61710;BME280;47633;51.494;5.386;2022-09-20T03:42:28;102191.50;;;19.33;51.11
61710;BME280;47633;51.494;5.386;2022-09-20T04:07:15;102182.38;;;19.25;51.25
61710;BME280;47633;51.494;5.386;2022-09-20T04:12:52;102202.47;;;19.27;51.24
61710;BME280;47633;51.494;5.386;2022-09-20T04:20:45;102163.13;;;19.23;51.33
61710;BME280;47633;51.494;5.386;2022-09-20T04:23:32;102161.91;;;19.28;51.28
61710;BME280;47633;51.494;5.386;2022-09-20T04:26:01;102174.44;;;19.25;51.31
61710;BME280;47633;51.494;5.386;2022-09-20T04:28:39;102172.75;;;19.24;51.21
61710;BME280;47633;51.494;5.386;2022-09-20T04:31:25;102183.25;;;19.25;51.33
61710;BME280;47633;51.494;5.386;2022-09-20T04:33:54;102171.34;;;19.18;51.19
61710;BME280;47633;51.494;5.386;2022-09-20T04:36:51;102175.41;;;19.24;51.30
61710;BME280;47633;51.494;5.386;2022-09-20T04:39:42;102176.16;;;19.26;51.26
61710;BME280;47633;51.494;5.386;2022-09-20T04:48:01;102182.38;;;19.25;51.12
61710;BME280;47633;51.494;5.386;2022-09-20T04:56:16;102199.19;;;19.24;51.32
61710;BME280;47633;51.494;5.386;2022-09-20T04:58:47;102202.69;;;19.24;51.40
61710;BME280;47633;51.494;5.386;2022-09-20T05:09:36;102197.50;;;19.23;51.17
61710;BME280;47633;51.494;5.386;2022-09-20T05:12:31;102195.69;;;19.23;51.12
61710;BME280;47633;51.494;5.386;2022-09-20T05:15:07;102201.84;;;19.24;51.18
61710;BME280;47633;51.494;5.386;2022-09-20T05:27:18;102198.94;;;19.14;51.19
61710;BME280;47633;51.494;5.386;2022-09-20T05:30:06;102210.25;;;19.16;51.19
61710;BME280;47633;51.494;5.386;2022-09-20T05:32:41;102220.44;;;19.22;51.12
61710;BME280;47633;51.494;5.386;2022-09-20T05:35:25;102213.53;;;19.19;51.44
61710;BME280;47633;51.494;5.386;2022-09-20T05:38:02;102221.38;;;19.21;51.34
61710;BME280;47633;51.494;5.386;2022-09-20T05:40:34;102213.94;;;19.13;51.23
61710;BME280;47633;51.494;5.386;2022-09-20T05:43:10;102229.50;;;19.18;51.21
61710;BME280;47633;51.494;5.386;2022-09-20T05:50:57;102230.13;;;19.21;51.31
61710;BME280;47633;51.494;5.386;2022-09-20T05:56:40;102219.66;;;19.20;51.29
61710;BME280;47633;51.494;5.386;2022-09-20T05:59:29;102242.97;;;19.28;51.58
61710;BME280;47633;51.494;5.386;2022-09-20T06:04:51;102244.66;;;19.29;51.43
61710;BME280;47633;51.494;5.386;2022-09-20T06:07:35;102248.16;;;19.29;52.00
61710;BME280;47633;51.494;5.386;2022-09-20T06:15:48;102251.66;;;19.30;51.84
61710;BME280;47633;51.494;5.386;2022-09-20T06:23:23;102254.84;;;19.35;51.68
61710;BME280;47633;51.494;5.386;2022-09-20T06:25:53;102259.94;;;19.38;51.51
61710;BME280;47633;51.494;5.386;2022-09-20T06:28:28;102249.75;;;19.32;51.63
61710;BME280;47633;51.494;5.386;2022-09-20T06:30:57;102253.16;;;19.34;51.69
61710;BME280;47633;51.494;5.386;2022-09-20T06:33:27;102258.13;;;19.38;51.72
61710;BME280;47633;51.494;5.386;2022-09-20T06:36:01;102258.13;;;19.38;51.86
61710;BME280;47633;51.494;5.386;2022-09-20T06:41:38;102264.75;;;19.46;51.90
61710;BME280;47633;51.494;5.386;2022-09-20T06:44:04;102257.09;;;19.41;51.83
61710;BME280;47633;51.494;5.386;2022-09-20T06:46:31;102263.69;;;19.48;52.00
61710;BME280;47633;51.494;5.386;2022-09-20T06:48:58;102240.69;;;19.36;51.95
61710;BME280;47633;51.494;5.386;2022-09-20T06:51:26;102238.06;;;19.36;52.00
61710;BME280;47633;51.494;5.386;2022-09-20T06:53:53;102266.88;;;19.53;52.02
61710;BME280;47633;51.494;5.386;2022-09-20T06:56:27;102259.06;;;19.52;52.06
61710;BME280;47633;51.494;5.386;2022-09-20T06:58:54;102271.03;;;19.57;52.25
61710;BME280;47633;51.494;5.386;2022-09-20T07:01:19;102257.34;;;19.51;52.26
61710;BME280;47633;51.494;5.386;2022-09-20T07:03:45;102235.41;;;19.36;52.39
61710;BME280;47633;51.494;5.386;2022-09-20T07:06:10;102270.09;;;19.58;52.08
61710;BME280;47633;51.494;5.386;2022-09-20T07:08:36;102262.44;;;19.54;51.85
61710;BME280;47633;51.494;5.386;2022-09-20T07:11:06;102261.38;;;19.56;52.32
61710;BME280;47633;51.494;5.386;2022-09-20T07:13:34;102258.75;;;19.56;52.04
61710;BME280;47633;51.494;5.386;2022-09-20T07:16:03;102258.63;;;19.58;52.00
61710;BME280;47633;51.494;5.386;2022-09-20T07:18:29;102257.69;;;19.59;52.01
61710;BME280;47633;51.494;5.386;2022-09-20T07:20:56;102264.41;;;19.65;51.84
61710;BME280;47633;51.494;5.386;2022-09-20T07:23:24;102260.03;;;19.64;51.67
61710;BME280;47633;51.494;5.386;2022-09-20T07:25:49;102269.50;;;19.68;51.85
61710;BME280;47633;51.494;5.386;2022-09-20T07:28:15;102260.97;;;19.63;51.97
61710;BME280;47633;51.494;5.386;2022-09-20T07:30:41;102264.69;;;19.60;52.22
61710;BME280;47633;51.494;5.386;2022-09-20T07:33:06;102254.63;;;19.52;52.21
61710;BME280;47633;51.494;5.386;2022-09-20T07:35:34;102250.56;;;19.47;52.07
61710;BME280;47633;51.494;5.386;2022-09-20T07:38:00;102265.44;;;19.62;51.92
61710;BME280;47633;51.494;5.386;2022-09-20T07:40:26;102261.84;;;19.63;52.15
61710;BME280;47633;51.494;5.386;2022-09-20T07:42:51;102265.69;;;19.72;51.71
61710;BME280;47633;51.494;5.386;2022-09-20T07:45:16;102276.44;;;19.83;51.38
61710;BME280;47633;51.494;5.386;2022-09-20T07:47:42;102257.28;;;19.80;51.45
61710;BME280;47633;51.494;5.386;2022-09-20T07:50:08;102271.56;;;19.90;51.22
61710;BME280;47633;51.494;5.386;2022-09-20T07:52:35;102280.72;;;19.99;51.04
61710;BME280;47633;51.494;5.386;2022-09-20T07:55:01;102287.81;;;19.98;50.95
61710;BME280;47633;51.494;5.386;2022-09-20T07:57:26;102287.91;;;19.97;50.90
61710;BME280;47633;51.494;5.386;2022-09-20T07:59:51;102293.00;;;20.00;51.12
61710;BME280;47633;51.494;5.386;2022-09-20T08:02:17;102289.88;;;19.93;51.07
61710;BME280;47633;51.494;5.386;2022-09-20T08:04:42;102282.16;;;19.90;51.00
61710;BME280;47633;51.494;5.386;2022-09-20T08:07:08;102297.72;;;19.94;51.16
61710;BME280;47633;51.494;5.386;2022-09-20T08:09:33;102297.31;;;20.01;51.11
61710;BME280;47633;51.494;5.386;2022-09-20T08:11:58;102295.75;;;19.98;50.97
61710;BME280;47633;51.494;5.386;2022-09-20T08:14:23;102298.09;;;20.03;50.81
61710;BME280;47633;51.494;5.386;2022-09-20T08:16:49;102307.50;;;20.07;50.96
61710;BME280;47633;51.494;5.386;2022-09-20T08:19:20;102306.38;;;20.11;50.87
61710;BME280;47633;51.494;5.386;2022-09-20T08:21:46;102296.91;;;20.07;50.91
61710;BME280;47633;51.494;5.386;2022-09-20T08:24:12;102301.81;;;20.13;50.68
61710;BME280;47633;51.494;5.386;2022-09-20T08:26:39;102279.78;;;20.00;50.68
61710;BME280;47633;51.494;5.386;2022-09-20T08:29:04;102308.72;;;20.16;50.50
61710;BME280;47633;51.494;5.386;2022-09-20T08:31:31;102303.81;;;20.09;50.22
61710;BME280;47633;51.494;5.386;2022-09-20T08:33:58;102309.94;;;20.10;50.46
61710;BME280;47633;51.494;5.386;2022-09-20T08:36:27;102306.78;;;20.05;50.72
61710;BME280;47633;51.494;5.386;2022-09-20T08:38:52;102304.13;;;20.05;50.50
61710;BME280;47633;51.494;5.386;2022-09-20T08:41:30;102304.03;;;20.06;50.70
61710;BME280;47633;51.494;5.386;2022-09-20T08:44:11;102316.47;;;20.04;50.57
61710;BME280;47633;51.494;5.386;2022-09-20T08:46:42;102302.72;;;19.99;50.56
61710;BME280;47633;51.494;5.386;2022-09-20T08:49:16;102313.84;;;20.04;50.74
61710;BME280;47633;51.494;5.386;2022-09-20T08:51:44;102296.88;;;19.94;51.19
61710;BME280;47633;51.494;5.386;2022-09-20T08:54:15;102312.91;;;20.05;51.41
61710;BME280;47633;51.494;5.386;2022-09-20T08:56:41;102312.59;;;20.10;50.85
61710;BME280;47633;51.494;5.386;2022-09-20T08:59:15;102314.19;;;20.13;50.82
61710;BME280;47633;51.494;5.386;2022-09-20T09:01:42;102317.06;;;20.22;50.92
61710;BME280;47633;51.494;5.386;2022-09-20T09:04:16;102316.97;;;20.24;50.42
61710;BME280;47633;51.494;5.386;2022-09-20T09:06:43;102323.22;;;20.36;50.26
61710;BME280;47633;51.494;5.386;2022-09-20T09:09:23;102308.72;;;20.28;50.09
61710;BME280;47633;51.494;5.386;2022-09-20T09:11:51;102318.56;;;20.39;50.02
61710;BME280;47633;51.494;5.386;2022-09-20T09:14:29;102311.06;;;20.33;50.17
61710;BME280;47633;51.494;5.386;2022-09-20T09:17:16;102320.16;;;20.42;50.22
61710;BME280;47633;51.494;5.386;2022-09-20T09:19:45;102328.94;;;20.42;49.94
61710;BME280;47633;51.494;5.386;2022-09-20T09:22:21;102318.47;;;20.41;49.99
61710;BME280;47633;51.494;5.386;2022-09-20T09:25:21;102312.53;;;20.37;50.06
61710;BME280;47633;51.494;5.386;2022-09-20T09:27:50;102314.56;;;20.34;49.69
61710;BME280;47633;51.494;5.386;2022-09-20T09:30:27;102325.78;;;20.37;50.02
61710;BME280;47633;51.494;5.386;2022-09-20T09:35:41;102306.59;;;20.34;49.84
61710;BME280;47633;51.494;5.386;2022-09-20T09:38:16;102313.81;;;20.44;49.44
61710;BME280;47633;51.494;5.386;2022-09-20T09:40:51;102312.75;;;20.47;49.50
61710;BME280;47633;51.494;5.386;2022-09-20T09:43:22;102318.72;;;20.51;49.25
61710;BME280;47633;51.494;5.386;2022-09-20T09:45:51;102311.72;;;20.50;49.25
61710;BME280;47633;51.494;5.386;2022-09-20T09:48:23;102323.56;;;20.57;48.89
61710;BME280;47633;51.494;5.386;2022-09-20T09:50:48;102325.25;;;20.58;49.03
61710;BME280;47633;51.494;5.386;2022-09-20T09:53:18;102314.97;;;20.53;48.94
61710;BME280;47633;51.494;5.386;2022-09-20T09:55:53;102305.25;;;20.54;48.78
61710;BME280;47633;51.494;5.386;2022-09-20T10:01:25;102325.91;;;20.61;48.85
61710;BME280;47633;51.494;5.386;2022-09-20T10:04:02;102328.53;;;20.61;48.58
61710;BME280;47633;51.494;5.386;2022-09-20T10:06:34;102319.44;;;20.53;48.69
61710;BME280;47633;51.494;5.386;2022-09-20T10:11:55;102326.31;;;20.55;48.92
61710;BME280;47633;51.494;5.386;2022-09-20T10:14:46;102332.16;;;20.60;48.70
61710;BME280;47633;51.494;5.386;2022-09-20T10:17:35;102335.66;;;20.61;48.73
61710;BME280;47633;51.494;5.386;2022-09-20T10:26:30;102328.13;;;20.55;49.05
61710;BME280;47633;51.494;5.386;2022-09-20T10:31:58;102333.63;;;20.52;49.11
61710;BME280;47633;51.494;5.386;2022-09-20T10:37:16;102328.03;;;20.56;49.01
61710;BME280;47633;51.494;5.386;2022-09-20T10:39:46;102305.78;;;20.46;48.96
61710;BME280;47633;51.494;5.386;2022-09-20T10:45:28;102319.97;;;20.58;48.87
61710;BME280;47633;51.494;5.386;2022-09-20T10:48:04;102335.25;;;20.67;48.97
61710;BME280;47633;51.494;5.386;2022-09-20T10:56:07;102327.31;;;20.67;49.08
61710;BME280;47633;51.494;5.386;2022-09-20T10:58:48;102330.81;;;20.68;48.98
61710;BME280;47633;51.494;5.386;2022-09-20T11:01:53;102320.31;;;20.66;48.91
61710;BME280;47633;51.494;5.386;2022-09-20T11:04:43;102335.06;;;20.70;48.76
61710;BME280;47633;51.494;5.386;2022-09-20T11:10:04;102342.28;;;20.68;48.83
61710;BME280;47633;51.494;5.386;2022-09-20T11:12:41;102332.28;;;20.59;48.73
61710;BME280;47633;51.494;5.386;2022-09-20T11:15:15;102330.56;;;20.58;48.87
61710;BME280;47633;51.494;5.386;2022-09-20T11:18:35;102340.94;;;20.61;48.55
61710;BME280;47633;51.494;5.386;2022-09-20T11:20:57;102339.25;;;20.60;48.85
61710;BME280;47633;51.494;5.386;2022-09-20T11:26:09;102344.75;;;20.57;49.15
61710;BME280;47633;51.494;5.386;2022-09-20T11:28:41;102320.59;;;20.48;48.75
61710;BME280;47633;51.494;5.386;2022-09-20T11:31:35;102344.44;;;20.61;48.86
61710;BME280;47633;51.494;5.386;2022-09-20T11:36:54;102343.81;;;20.58;48.90
61710;BME280;47633;51.494;5.386;2022-09-20T11:39:43;102340.53;;;20.54;48.64
61710;BME280;47633;51.494;5.386;2022-09-20T11:42:15;102341.47;;;20.53;48.90
61710;BME280;47633;51.494;5.386;2022-09-20T11:44:43;102351.03;;;20.56;48.77
61710;BME280;47633;51.494;5.386;2022-09-20T11:47:17;102350.59;;;20.49;48.66
61710;BME280;47633;51.494;5.386;2022-09-20T11:55:23;102366.69;;;20.46;48.60
61710;BME280;47633;51.494;5.386;2022-09-20T11:58:08;102357.97;;;20.44;48.84
61710;BME280;47633;51.494;5.386;2022-09-20T12:00:36;102348.97;;;20.34;48.88
61710;BME280;47633;51.494;5.386;2022-09-20T12:03:07;102354.66;;;20.27;49.20
61710;BME280;47633;51.494;5.386;2022-09-20T12:05:44;102352.53;;;20.20;49.33
61710;BME280;47633;51.494;5.386;2022-09-20T12:08:23;102359.97;;;20.27;49.08
61710;BME280;47633;51.494;5.386;2022-09-20T12:11:16;102340.38;;;20.17;49.35
61710;BME280;47633;51.494;5.386;2022-09-20T12:13:51;102349.97;;;20.18;49.41
61710;BME280;47633;51.494;5.386;2022-09-20T12:16:41;102353.69;;;20.16;49.38
61710;BME280;47633;51.494;5.386;2022-09-20T12:19:10;102355.06;;;20.21;49.54
61710;BME280;47633;51.494;5.386;2022-09-20T12:24:34;102356.06;;;20.33;49.30
61710;BME280;47633;51.494;5.386;2022-09-20T12:27:18;102357.53;;;20.37;49.04
61710;BME280;47633;51.494;5.386;2022-09-20T12:30:16;102367.53;;;20.46;48.87
61710;BME280;47633;51.494;5.386;2022-09-20T12:32:48;102356.72;;;20.50;48.77
61710;BME280;47633;51.494;5.386;2022-09-20T12:38:35;102363.09;;;20.60;48.34
61710;BME280;47633;51.494;5.386;2022-09-20T12:41:10;102356.94;;;20.59;48.33
61710;BME280;47633;51.494;5.386;2022-09-20T12:43:49;102352.00;;;20.68;48.62
61710;BME280;47633;51.494;5.386;2022-09-20T12:46:31;102352.00;;;20.68;48.44
61710;BME280;47633;51.494;5.386;2022-09-20T12:52:04;102353.91;;;20.78;48.12
61710;BME280;47633;51.494;5.386;2022-09-20T12:55:03;102341.19;;;20.71;47.99
61710;BME280;47633;51.494;5.386;2022-09-20T12:57:33;102354.03;;;20.77;47.59
61710;BME280;47633;51.494;5.386;2022-09-20T13:00:00;102347.88;;;20.76;47.90
61710;BME280;47633;51.494;5.386;2022-09-20T13:05:33;102343.94;;;20.69;48.02
61710;BME280;47633;51.494;5.386;2022-09-20T13:08:19;102346.81;;;20.66;47.14
61710;BME280;47633;51.494;5.386;2022-09-20T13:10:51;102324.84;;;20.51;47.99
61710;BME280;47633;51.494;5.386;2022-09-20T13:13:32;102337.78;;;20.56;48.26
61710;BME280;47633;51.494;5.386;2022-09-20T13:16:00;102332.78;;;20.51;48.05
61710;BME280;47633;51.494;5.386;2022-09-20T13:18:29;102336.06;;;20.55;48.33
61710;BME280;47633;51.494;5.386;2022-09-20T13:20:56;102338.50;;;20.58;48.20
61710;BME280;47633;51.494;5.386;2022-09-20T13:23:28;102336.50;;;20.61;47.92
61710;BME280;47633;51.494;5.386;2022-09-20T13:25:56;102330.56;;;20.58;48.07
61710;BME280;47633;51.494;5.386;2022-09-20T13:28:46;102348.31;;;20.70;47.87
61710;BME280;47633;51.494;5.386;2022-09-20T13:33:44;102346.06;;;20.64;47.84
61710;BME280;47633;51.494;5.386;2022-09-20T13:36:10;102345.19;;;20.63;46.61
61710;BME280;47633;51.494;5.386;2022-09-20T13:38:36;102336.50;;;20.61;46.61
61710;BME280;47633;51.494;5.386;2022-09-20T13:41:11;102331.84;;;20.52;47.42
61710;BME280;47633;51.494;5.386;2022-09-20T13:43:38;102345.19;;;20.63;47.94
61710;BME280;47633;51.494;5.386;2022-09-20T13:46:11;102328.22;;;20.53;47.55
61710;BME280;47633;51.494;5.386;2022-09-20T13:48:36;102338.31;;;20.61;47.92
61710;BME280;47633;51.494;5.386;2022-09-20T13:51:02;102329.63;;;20.59;47.61
61710;BME280;47633;51.494;5.386;2022-09-20T13:53:28;102333.00;;;20.61;47.54
61710;BME280;47633;51.494;5.386;2022-09-20T13:55:57;102318.25;;;20.57;47.20
61710;BME280;47633;51.494;5.386;2022-09-20T13:58:32;102320.59;;;20.61;47.44
61710;BME280;47633;51.494;5.386;2022-09-20T14:01:02;102316.16;;;20.62;47.55
61710;BME280;47633;51.494;5.386;2022-09-20T14:03:29;102317.00;;;20.62;47.63
61710;BME280;47633;51.494;5.386;2022-09-20T14:06:02;102322.03;;;20.67;47.20
61710;BME280;47633;51.494;5.386;2022-09-20T14:08:34;102313.41;;;20.63;47.62
61710;BME280;47633;51.494;5.386;2022-09-20T14:11:12;102322.66;;;20.71;47.60
61710;BME280;47633;51.494;5.386;2022-09-20T14:13:42;102319.28;;;20.69;47.64
61710;BME280;47633;51.494;5.386;2022-09-20T14:16:08;102325.31;;;20.71;47.45
61710;BME280;47633;51.494;5.386;2022-09-20T14:18:35;102314.69;;;20.71;47.50
61710;BME280;47633;51.494;5.386;2022-09-20T14:21:05;102324.25;;;20.73;47.58
61710;BME280;47633;51.494;5.386;2022-09-20T14:23:32;102303.03;;;20.60;47.54
61710;BME280;47633;51.494;5.386;2022-09-20T14:28:41;102286.16;;;20.48;47.40
61710;BME280;47633;51.494;5.386;2022-09-20T14:31:24;102316.84;;;20.65;47.55
61710;BME280;47633;51.494;5.386;2022-09-20T14:33:52;102318.53;;;20.67;47.76
61710;BME280;47633;51.494;5.386;2022-09-20T14:36:24;102302.47;;;20.55;47.73
61710;BME280;47633;51.494;5.386;2022-09-20T14:38:53;102310.56;;;20.54;47.89
61710;BME280;47633;51.494;5.386;2022-09-20T14:41:37;102317.94;;;20.61;47.91
61710;BME280;47633;51.494;5.386;2022-09-20T14:44:05;102311.09;;;20.59;47.75
61710;BME280;47633;51.494;5.386;2022-09-20T14:46:34;102323.16;;;20.63;47.55
61710;BME280;47633;51.494;5.386;2022-09-20T14:49:21;102323.25;;;20.61;47.58
61710;BME280;47633;51.494;5.386;2022-09-20T14:54:59;102312.03;;;20.58;47.94
61710;BME280;47633;51.494;5.386;2022-09-20T14:57:25;102314.78;;;20.56;47.87
61710;BME280;47633;51.494;5.386;2022-09-20T14:59:53;102312.13;;;20.56;48.02
61710;BME280;47633;51.494;5.386;2022-09-20T15:02:21;102319.66;;;20.62;47.91
61710;BME280;47633;51.494;5.386;2022-09-20T15:04:52;102310.31;;;20.57;48.08
61710;BME280;47633;51.494;5.386;2022-09-20T15:07:18;102304.19;;;20.56;47.72
61710;BME280;47633;51.494;5.386;2022-09-20T15:09:44;102303.25;;;20.57;48.13
61710;BME280;47633;51.494;5.386;2022-09-20T15:14:37;102311.72;;;20.62;47.83
61710;BME280;47633;51.494;5.386;2022-09-20T15:17:06;102312.66;;;20.61;47.79
61710;BME280;47633;51.494;5.386;2022-09-20T15:19:33;102313.72;;;20.59;48.07
61710;BME280;47633;51.494;5.386;2022-09-20T15:21:58;102310.22;;;20.58;47.99
61710;BME280;47633;51.494;5.386;2022-09-20T15:24:24;102322.31;;;20.62;48.39
61710;BME280;47633;51.494;5.386;2022-09-20T15:26:49;102306.00;;;20.56;48.40
61710;BME280;47633;51.494;5.386;2022-09-20T15:29:15;102317.94;;;20.61;48.25
61710;BME280;47633;51.494;5.386;2022-09-20T15:31:42;102310.22;;;20.58;48.33
61710;BME280;47633;51.494;5.386;2022-09-20T15:34:07;102314.19;;;20.65;48.41
61710;BME280;47633;51.494;5.386;2022-09-20T15:36:32;102316.06;;;20.63;48.39
61710;BME280;47633;51.494;5.386;2022-09-20T15:38:58;102312.03;;;20.58;48.41
61710;BME280;47633;51.494;5.386;2022-09-20T15:41:23;102292.75;;;20.56;48.26
61710;BME280;47633;51.494;5.386;2022-09-20T15:43:48;102316.84;;;20.65;48.48
61710;BME280;47633;51.494;5.386;2022-09-20T15:46:20;102292.13;;;20.52;48.32
61710;BME280;47633;51.494;5.386;2022-09-20T15:48:46;102308.13;;;20.63;48.69
61710;BME280;47633;51.494;5.386;2022-09-20T15:51:12;102297.72;;;20.60;48.39
61710;BME280;47633;51.494;5.386;2022-09-20T15:53:40;102313.41;;;20.63;48.53
61710;BME280;47633;51.494;5.386;2022-09-20T15:58:43;102317.34;;;20.71;48.41
61710;BME280;47633;51.494;5.386;2022-09-20T16:01:10;102311.31;;;20.69;48.56
61710;BME280;47633;51.494;5.386;2022-09-20T16:03:35;102308.78;;;20.67;48.33
61710;BME280;47633;51.494;5.386;2022-09-20T16:06:03;102278.63;;;20.55;48.55
61710;BME280;47633;51.494;5.386;2022-09-20T16:08:34;102305.81;;;20.72;48.64
61710;BME280;47633;51.494;5.386;2022-09-20T16:11:01;102310.91;;;20.75;48.55
61710;BME280;47633;51.494;5.386;2022-09-20T16:13:27;102304.22;;;20.69;48.23
61710;BME280;47633;51.494;5.386;2022-09-20T16:15:57;102309.94;;;20.76;48.10
61710;BME280;47633;51.494;5.386;2022-09-20T16:18:23;102311.00;;;20.73;48.13
61710;BME280;47633;51.494;5.386;2022-09-20T16:21:09;102311.75;;;20.75;48.37
61710;BME280;47633;51.494;5.386;2022-09-20T16:23:37;102316.31;;;20.73;48.34
61710;BME280;47633;51.494;5.386;2022-09-20T16:26:06;102315.00;;;20.79;48.49
61710;BME280;47633;51.494;5.386;2022-09-20T16:28:34;102317.66;;;20.79;48.63
61710;BME280;47633;51.494;5.386;2022-09-20T16:31:00;102309.94;;;20.76;48.54
61710;BME280;47633;51.494;5.386;2022-09-20T16:33:25;102312.56;;;20.76;48.48
61710;BME280;47633;51.494;5.386;2022-09-20T16:35:51;102300.84;;;20.67;48.33
61710;BME280;47633;51.494;5.386;2022-09-20T16:38:16;102315.13;;;20.77;48.43
61710;BME280;47633;51.494;5.386;2022-09-20T16:40:43;102325.41;;;20.82;48.38
61710;BME280;47633;51.494;5.386;2022-09-20T16:43:08;102326.59;;;20.78;48.55
61710;BME280;47633;51.494;5.386;2022-09-20T16:45:34;102327.31;;;20.80;48.52
61710;BME280;47633;51.494;5.386;2022-09-20T16:48:00;102331.69;;;20.81;48.22
61710;BME280;47633;51.494;5.386;2022-09-20T16:50:27;102328.38;;;20.77;48.68
61710;BME280;47633;51.494;5.386;2022-09-20T16:52:53;102333.34;;;20.82;48.54